createdAt,value
2022-08-26T00:02:24.212Z,20.50
2022-08-26T00:04:54.709Z,20.40
2022-08-26T00:07:25.100Z,20.40
2022-08-26T00:09:58.921Z,20.40
2022-08-26T00:12:36.005Z,20.40
2022-08-26T00:15:11.513Z,20.40
2022-08-26T00:17:42.285Z,20.40
2022-08-26T00:20:22.473Z,20.40
2022-08-26T00:22:53.038Z,20.40
2022-08-26T00:25:26.425Z,20.40
2022-08-26T00:27:56.850Z,20.30
2022-08-26T00:30:30.327Z,20.30
2022-08-26T00:33:01.960Z,20.30
2022-08-26T00:35:33.542Z,20.30
2022-08-26T00:38:05.258Z,20.30
2022-08-26T00:40:47.378Z,20.20
2022-08-26T00:43:18.600Z,20.20
2022-08-26T00:45:56.637Z,20.20
2022-08-26T00:48:31.908Z,20.20
2022-08-26T00:51:09.763Z,20.20
2022-08-26T00:53:46.796Z,20.20
2022-08-26T00:56:27.288Z,20.20
2022-08-26T00:59:00.107Z,20.20
2022-08-26T01:01:31.391Z,20.20
2022-08-26T01:04:02.808Z,20.20
2022-08-26T01:06:33.381Z,20.10
2022-08-26T01:09:03.734Z,20.20
2022-08-26T01:11:37.263Z,20.10
2022-08-26T01:14:09.434Z,20.10
2022-08-26T01:16:40.382Z,20.00
2022-08-26T01:19:21.986Z,20.00
2022-08-26T01:22:01.329Z,20.00
2022-08-26T01:24:34.816Z,20.00
2022-08-26T01:27:13.469Z,20.00
2022-08-26T01:29:47.426Z,20.10
2022-08-26T01:32:25.988Z,20.10
2022-08-26T01:34:57.378Z,20.00
2022-08-26T01:37:36.910Z,20.00
2022-08-26T01:40:17.305Z,20.00
2022-08-26T01:42:49.337Z,20.00
2022-08-26T01:45:25.879Z,20.00
2022-08-26T01:48:00.319Z,20.00
2022-08-26T01:50:34.456Z,20.00
2022-08-26T01:53:09.757Z,19.90
2022-08-26T01:55:49.489Z,19.90
2022-08-26T01:58:27.041Z,19.90
2022-08-26T02:00:57.961Z,19.90
2022-08-26T02:03:29.960Z,19.90
2022-08-26T02:06:04.720Z,19.90
2022-08-26T02:08:42.478Z,19.90
2022-08-26T02:11:18.285Z,19.90
2022-08-26T02:13:52.525Z,19.90
2022-08-26T02:16:29.211Z,19.90
2022-08-26T02:18:59.348Z,19.90
2022-08-26T02:21:30.024Z,19.90
2022-08-26T02:24:11.678Z,19.90
2022-08-26T02:26:46.377Z,19.90
2022-08-26T02:29:22.776Z,19.90
2022-08-26T02:31:53.305Z,19.80
2022-08-26T02:34:31.430Z,19.80
2022-08-26T02:37:03.684Z,19.80
2022-08-26T02:39:35.473Z,19.80
2022-08-26T02:42:09.188Z,19.80
2022-08-26T02:44:40.289Z,19.70
2022-08-26T02:47:11.083Z,19.70
2022-08-26T02:49:44.346Z,19.80
2022-08-26T02:52:17.790Z,19.80
2022-08-26T02:54:49.594Z,19.80
2022-08-26T02:57:23.420Z,19.80
2022-08-26T02:59:54.511Z,19.80
2022-08-26T03:02:24.834Z,19.80
2022-08-26T03:04:57.323Z,19.80
2022-08-26T03:07:31.089Z,19.80
2022-08-26T03:10:01.777Z,19.80
2022-08-26T03:12:41.796Z,19.90
2022-08-26T03:15:17.573Z,19.80
2022-08-26T03:17:50.502Z,19.80
2022-08-26T03:20:21.615Z,19.80
2022-08-26T03:22:53.518Z,19.80
2022-08-26T03:25:27.161Z,19.80
2022-08-26T03:28:00.130Z,19.80
2022-08-26T03:30:44.890Z,19.80
2022-08-26T03:33:17.483Z,19.80
2022-08-26T03:35:50.543Z,19.70
2022-08-26T03:38:22.186Z,19.70
2022-08-26T03:40:52.648Z,19.80
2022-08-26T03:43:26.963Z,19.80
2022-08-26T03:45:57.323Z,19.70
2022-08-26T03:48:27.573Z,19.70
2022-08-26T03:50:57.756Z,19.70
2022-08-26T03:53:28.168Z,19.70
2022-08-26T03:55:58.567Z,19.70
2022-08-26T03:58:32.308Z,19.70
2022-08-26T04:01:02.830Z,19.70
2022-08-26T04:03:46.348Z,19.70
2022-08-26T04:06:16.661Z,19.70
2022-08-26T04:08:47.754Z,19.70
2022-08-26T04:11:21.751Z,19.70
2022-08-26T04:13:54.756Z,19.70
2022-08-26T04:16:25.107Z,19.70
2022-08-26T04:18:58.310Z,19.60
2022-08-26T04:21:30.193Z,19.60
2022-08-26T04:24:03.619Z,19.60
2022-08-26T04:26:39.591Z,19.60
2022-08-26T04:29:20.874Z,19.60
2022-08-26T04:31:55.259Z,19.60
2022-08-26T04:34:27.276Z,19.60
2022-08-26T04:36:59.375Z,19.60
2022-08-26T04:39:30.337Z,19.60
2022-08-26T04:42:02.735Z,19.60
2022-08-26T04:44:39.397Z,19.60
2022-08-26T04:47:10.025Z,19.70
2022-08-26T04:49:41.547Z,19.70
2022-08-26T04:52:12.060Z,19.70
2022-08-26T04:54:42.860Z,19.70
2022-08-26T04:57:14.125Z,19.80
2022-08-26T04:59:47.081Z,19.80
2022-08-26T05:02:19.950Z,19.80
2022-08-26T05:04:51.902Z,19.90
2022-08-26T05:07:22.363Z,20.00
2022-08-26T05:09:53.035Z,20.00
2022-08-26T05:12:24.885Z,20.00
2022-08-26T05:14:58.012Z,20.10
2022-08-26T05:17:28.114Z,20.10
2022-08-26T05:19:58.530Z,20.20
2022-08-26T05:22:28.746Z,20.30
2022-08-26T05:24:59.216Z,20.30
2022-08-26T05:27:29.521Z,20.40
2022-08-26T05:30:03.524Z,20.40
2022-08-26T05:32:34.413Z,20.40
2022-08-26T05:35:04.633Z,20.40
2022-08-26T05:37:40.898Z,20.50
2022-08-26T05:40:12.885Z,20.60
2022-08-26T05:42:43.128Z,20.70
2022-08-26T05:45:16.787Z,20.70
2022-08-26T05:47:47.500Z,20.80
2022-08-26T05:50:21.988Z,20.90
2022-08-26T05:52:53.727Z,20.90
2022-08-26T05:55:24.423Z,21.00
2022-08-26T05:57:54.622Z,21.10
2022-08-26T06:00:28.426Z,21.10
2022-08-26T06:02:59.138Z,21.20
2022-08-26T06:05:29.919Z,21.30
2022-08-26T06:08:12.712Z,21.40
2022-08-26T06:10:48.673Z,21.40
2022-08-26T06:13:26.973Z,21.50
2022-08-26T06:16:06.231Z,21.60
2022-08-26T06:18:41.363Z,21.70
2022-08-26T06:21:19.738Z,21.80
2022-08-26T06:24:05.218Z,21.90
2022-08-26T06:26:36.575Z,22.00
2022-08-26T06:29:08.772Z,22.10
2022-08-26T06:31:41.766Z,22.10
2022-08-26T06:34:12.507Z,22.20
2022-08-26T06:36:47.401Z,22.40
2022-08-26T06:39:20.773Z,22.50
2022-08-26T06:41:52.205Z,22.50
2022-08-26T06:44:23.437Z,22.50
2022-08-26T06:46:56.436Z,22.50
2022-08-26T06:49:27.865Z,22.50
2022-08-26T06:51:59.299Z,22.70
2022-08-26T06:54:31.990Z,22.80
2022-08-26T06:57:02.577Z,22.90
2022-08-26T06:59:34.003Z,23.10
2022-08-26T07:02:08.332Z,23.20
2022-08-26T07:04:38.548Z,23.30
2022-08-26T07:07:09.668Z,23.30
2022-08-26T07:09:39.971Z,23.30
2022-08-26T07:12:10.519Z,23.30
2022-08-26T07:14:41.309Z,23.40
2022-08-26T07:17:20.450Z,23.50
2022-08-26T07:19:51.744Z,23.80
2022-08-26T07:22:23.253Z,23.90
2022-08-26T07:24:55.061Z,23.90
2022-08-26T07:27:26.130Z,24.10
2022-08-26T07:30:00.181Z,24.30
2022-08-26T07:32:35.104Z,24.40
2022-08-26T07:35:05.802Z,24.40
2022-08-26T07:37:39.358Z,24.60
2022-08-26T07:40:12.073Z,24.60
2022-08-26T07:42:42.600Z,24.60
2022-08-26T07:45:13.365Z,24.80
2022-08-26T07:47:47.846Z,24.90
2022-08-26T07:50:18.152Z,24.90
2022-08-26T07:52:48.462Z,25.00
2022-08-26T07:55:19.085Z,25.10
2022-08-26T07:57:49.901Z,25.20
2022-08-26T08:00:20.678Z,25.20
2022-08-26T08:02:54.253Z,25.30
2022-08-26T08:05:27.242Z,25.20
2022-08-26T08:08:27.223Z,25.40
2022-08-26T08:10:55.369Z,25.60
2022-08-26T08:13:27.035Z,25.70
2022-08-26T08:15:57.648Z,25.70
2022-08-26T08:18:31.327Z,25.80
2022-08-26T08:21:20.953Z,25.90
2022-08-26T08:23:52.784Z,25.90
2022-08-26T08:26:23.698Z,26.00
2022-08-26T08:28:56.942Z,26.10
2022-08-26T08:31:56.280Z,26.10
2022-08-26T08:34:23.247Z,26.20
2022-08-26T08:36:54.349Z,26.20
2022-08-26T08:39:25.139Z,26.30
2022-08-26T08:42:26.138Z,26.40
2022-08-26T08:45:01.721Z,26.70
2022-08-26T08:47:37.927Z,26.70
2022-08-26T08:50:32.009Z,26.60
2022-08-26T08:53:15.482Z,26.80
2022-08-26T08:56:02.138Z,26.60
2022-08-26T08:58:51.315Z,26.50
2022-08-26T09:01:39.610Z,26.50
2022-08-26T09:04:51.551Z,26.40
2022-08-26T09:07:31.259Z,26.40
2022-08-26T09:10:08.458Z,26.70
2022-08-26T09:12:39.016Z,26.70
2022-08-26T09:15:20.544Z,26.80
2022-08-26T09:18:00.094Z,26.80
2022-08-26T09:20:45.682Z,26.80
2022-08-26T09:23:19.609Z,27.00
2022-08-26T09:28:50.575Z,26.80
2022-08-26T09:31:27.639Z,26.80
2022-08-26T09:34:17.391Z,26.80
2022-08-26T09:36:51.519Z,26.90
2022-08-26T09:39:37.928Z,26.90
2022-08-26T09:42:14.156Z,26.90
2022-08-26T09:45:00.527Z,26.90
2022-08-26T09:47:34.625Z,27.00
2022-08-26T09:50:12.383Z,27.00
2022-08-26T09:52:43.128Z,27.00
2022-08-26T09:55:24.129Z,27.00
2022-08-26T09:57:57.538Z,27.10
2022-08-26T10:00:35.435Z,27.10
2022-08-26T10:03:15.561Z,27.10
2022-08-26T10:05:57.584Z,27.10
2022-08-26T10:08:33.984Z,27.10
2022-08-26T10:11:17.927Z,27.20
2022-08-26T10:13:55.662Z,27.30
2022-08-26T10:16:30.287Z,27.40
2022-08-26T10:19:09.261Z,27.50
2022-08-26T10:21:45.684Z,27.60
2022-08-26T10:24:31.323Z,27.70
2022-08-26T10:27:13.599Z,27.70
2022-08-26T10:29:49.500Z,27.90
2022-08-26T10:32:30.959Z,28.00
2022-08-26T10:35:01.372Z,28.20
2022-08-26T10:37:48.858Z,28.10
2022-08-26T10:40:27.601Z,28.10
2022-08-26T10:43:11.171Z,28.20
2022-08-26T10:45:47.318Z,28.40
2022-08-26T10:48:23.509Z,28.60
2022-08-26T10:50:53.832Z,28.40
2022-08-26T10:53:33.908Z,28.70
2022-08-26T10:56:18.842Z,28.50
2022-08-26T10:59:10.416Z,28.30
2022-08-26T11:01:52.546Z,28.40
2022-08-26T11:04:42.371Z,28.40
2022-08-26T11:07:41.028Z,28.50
2022-08-26T11:10:49.395Z,28.30
2022-08-26T11:13:22.989Z,28.20
2022-08-26T11:16:11.200Z,28.10
2022-08-26T11:18:51.350Z,28.00
2022-08-26T11:21:53.784Z,28.20
2022-08-26T11:25:03.081Z,28.50
2022-08-26T11:28:09.727Z,28.50
2022-08-26T11:30:57.826Z,28.30
2022-08-26T11:34:00.253Z,28.10
2022-08-26T11:37:02.469Z,28.00
2022-08-26T11:39:54.044Z,27.90
2022-08-26T11:42:38.187Z,27.80
2022-08-26T11:45:24.334Z,27.80
2022-08-26T11:47:57.729Z,27.70
2022-08-26T11:50:31.323Z,27.70
2022-08-26T11:53:06.252Z,27.60
2022-08-26T11:55:39.400Z,27.50
2022-08-26T11:58:09.748Z,27.50
2022-08-26T12:00:55.328Z,27.50
2022-08-26T12:03:38.906Z,27.50
2022-08-26T12:06:17.264Z,27.40
2022-08-26T12:08:48.553Z,27.40
2022-08-26T12:11:27.156Z,27.40
2022-08-26T12:14:00.526Z,27.40
2022-08-26T12:16:33.594Z,27.40
2022-08-26T12:19:27.436Z,27.30
2022-08-26T12:22:01.790Z,27.30
2022-08-26T12:24:32.072Z,27.30
2022-08-26T12:27:19.952Z,27.30
2022-08-26T12:30:06.802Z,27.30
2022-08-26T12:32:57.155Z,27.20
2022-08-26T12:35:31.299Z,27.10
2022-08-26T12:38:03.006Z,27.00
2022-08-26T12:40:40.113Z,26.90
2022-08-26T12:43:15.804Z,26.90
2022-08-26T12:45:58.225Z,26.10
2022-08-26T12:48:32.548Z,25.30
2022-08-26T12:51:09.583Z,25.00
2022-08-26T12:53:46.465Z,24.60
2022-08-26T12:56:30.472Z,24.40
2022-08-26T12:59:12.255Z,24.10
2022-08-26T13:01:46.956Z,24.10
2022-08-26T13:04:38.463Z,23.90
2022-08-26T13:07:25.710Z,23.70
2022-08-26T13:09:58.603Z,23.70
2022-08-26T13:12:33.296Z,23.60
2022-08-26T13:15:05.365Z,23.40
2022-08-26T13:17:36.223Z,23.20
2022-08-26T13:20:07.725Z,23.10
2022-08-26T13:25:12.020Z,22.90
2022-08-26T13:27:42.352Z,22.80
2022-08-26T13:30:15.012Z,22.70
2022-08-26T13:32:45.597Z,22.40
2022-08-26T13:35:15.879Z,22.20
2022-08-26T13:37:48.798Z,22.00
2022-08-26T13:40:19.462Z,21.90
2022-08-26T13:42:50.183Z,21.90
2022-08-26T13:45:20.892Z,21.90
2022-08-26T13:47:51.425Z,21.90
2022-08-26T13:50:21.761Z,21.80
2022-08-26T13:52:54.659Z,21.80
2022-08-26T13:55:25.156Z,21.70
2022-08-26T13:57:55.388Z,21.70
2022-08-26T14:00:25.937Z,21.80
2022-08-26T14:02:56.369Z,21.70
2022-08-26T14:05:26.859Z,21.70
2022-08-26T14:08:00.314Z,21.60
2022-08-26T14:10:31.031Z,21.70
2022-08-26T14:13:01.399Z,21.70
2022-08-26T14:15:32.337Z,21.70
2022-08-26T14:18:05.462Z,21.80
2022-08-26T14:20:39.702Z,21.70
2022-08-26T14:23:14.160Z,21.70
2022-08-26T14:25:45.278Z,21.60
2022-08-26T14:28:15.720Z,21.70
2022-08-26T14:30:49.345Z,21.70
2022-08-26T14:33:23.188Z,21.60
2022-08-26T14:35:53.695Z,21.60
2022-08-26T14:38:26.697Z,21.70
2022-08-26T14:40:57.073Z,21.60
2022-08-26T14:43:27.357Z,21.60
2022-08-26T14:45:57.677Z,21.50
2022-08-26T14:48:28.092Z,21.60
2022-08-26T14:50:58.457Z,21.60
2022-08-26T14:53:43.794Z,21.50
2022-08-26T14:56:16.686Z,21.60
2022-08-26T14:58:47.239Z,21.60
2022-08-26T15:01:17.664Z,21.60
2022-08-26T15:03:48.784Z,21.60
2022-08-26T15:06:19.917Z,21.70
2022-08-26T15:08:52.820Z,21.70
2022-08-26T15:11:23.121Z,21.70
2022-08-26T15:13:53.577Z,21.70
2022-08-26T15:16:24.134Z,21.70
2022-08-26T15:18:54.664Z,21.80
2022-08-26T15:21:25.270Z,21.80
2022-08-26T15:23:58.258Z,21.90
2022-08-26T15:26:29.993Z,21.80
2022-08-26T15:29:04.336Z,21.80
2022-08-26T15:31:36.808Z,21.80
2022-08-26T15:34:16.175Z,21.90
2022-08-26T15:36:47.580Z,21.90
2022-08-26T15:39:20.917Z,21.80
2022-08-26T15:41:51.752Z,21.80
2022-08-26T15:44:22.092Z,21.50
2022-08-26T15:46:58.289Z,21.50
2022-08-26T15:49:29.124Z,21.50
2022-08-26T15:51:59.761Z,21.30
2022-08-26T15:54:32.664Z,21.20
2022-08-26T15:57:07.173Z,21.20
2022-08-26T15:59:39.876Z,21.20
2022-08-26T16:02:11.266Z,21.20
2022-08-26T16:04:42.060Z,21.20
2022-08-26T16:07:14.136Z,21.10
2022-08-26T16:09:49.207Z,21.00
2022-08-26T16:12:24.448Z,21.00
2022-08-26T16:14:54.784Z,21.00
2022-08-26T16:17:25.836Z,21.00
2022-08-26T16:19:56.439Z,20.90
2022-08-26T16:22:28.505Z,20.90
2022-08-26T16:25:02.550Z,20.80
2022-08-26T16:27:32.769Z,20.80
2022-08-26T16:30:03.143Z,20.80
2022-08-26T16:32:33.425Z,20.70
2022-08-26T16:35:03.698Z,20.70
2022-08-26T16:37:38.945Z,20.70
2022-08-26T16:40:14.263Z,20.70
2022-08-26T16:42:44.553Z,20.70
2022-08-26T16:45:15.200Z,20.60
2022-08-26T16:47:45.763Z,20.60
2022-08-26T16:50:16.334Z,20.60
2022-08-26T16:52:46.620Z,20.60
2022-08-26T16:55:25.769Z,20.50
2022-08-26T16:57:56.197Z,20.60
2022-08-26T17:00:30.527Z,20.60
2022-08-26T17:03:03.027Z,20.60
2022-08-26T17:05:33.768Z,20.50
2022-08-26T17:08:04.067Z,20.50
2022-08-26T17:10:37.909Z,20.50
2022-08-26T17:13:08.735Z,20.50
2022-08-26T17:15:39.061Z,20.50
2022-08-26T17:18:09.576Z,20.50
2022-08-26T17:20:39.735Z,20.50
2022-08-26T17:23:10.371Z,20.60
2022-08-26T17:25:43.583Z,20.60
2022-08-26T17:28:14.443Z,20.60
2022-08-26T17:30:45.026Z,20.60
2022-08-26T17:33:15.378Z,20.50
2022-08-26T17:35:53.144Z,20.60
2022-08-26T17:38:24.005Z,20.60
2022-08-26T17:40:57.503Z,20.50
2022-08-26T17:43:29.543Z,20.50
2022-08-26T17:46:07.020Z,20.50
2022-08-26T17:48:37.742Z,20.40
2022-08-26T17:51:12.317Z,20.40
2022-08-26T17:53:42.633Z,20.40
2022-08-26T17:56:18.618Z,20.30
2022-08-26T17:58:52.015Z,20.30
2022-08-26T18:01:22.782Z,20.30
2022-08-26T18:03:56.687Z,20.30
2022-08-26T18:06:30.480Z,20.30
2022-08-26T18:09:01.380Z,20.30
2022-08-26T18:11:34.831Z,20.30
2022-08-26T18:14:05.192Z,20.30
2022-08-26T18:16:38.484Z,20.30
2022-08-26T18:19:09.520Z,20.20
2022-08-26T18:21:39.920Z,20.30
2022-08-26T18:24:14.093Z,20.30
2022-08-26T18:26:49.610Z,20.30
2022-08-26T18:29:20.286Z,20.20
2022-08-26T18:31:51.338Z,20.20
2022-08-26T18:34:21.644Z,20.20
2022-08-26T18:36:55.280Z,20.20
2022-08-26T18:39:25.620Z,20.10
2022-08-26T18:41:59.030Z,20.20
2022-08-26T18:44:29.453Z,20.10
2022-08-26T18:46:59.696Z,20.10
2022-08-26T18:49:30.047Z,20.10
2022-08-26T18:52:00.380Z,20.10
2022-08-26T18:54:30.586Z,20.10
2022-08-26T18:57:03.541Z,20.00
2022-08-26T18:59:33.669Z,20.00
2022-08-26T19:02:04.152Z,20.00
2022-08-26T19:04:34.637Z,20.00
2022-08-26T19:07:04.958Z,20.00
2022-08-26T19:09:35.994Z,20.00
2022-08-26T19:12:09.763Z,20.00
2022-08-26T19:14:40.123Z,20.00
2022-08-26T19:17:10.400Z,20.00
2022-08-26T19:19:40.885Z,20.00
2022-08-26T19:22:11.362Z,20.00
2022-08-26T19:24:41.646Z,19.90
2022-08-26T19:27:15.130Z,19.90
2022-08-26T19:29:45.403Z,19.90
2022-08-26T19:32:17.124Z,19.90
2022-08-26T19:34:47.495Z,19.90
2022-08-26T19:37:17.875Z,20.00
2022-08-26T19:39:48.075Z,20.00
2022-08-26T19:42:20.937Z,20.00
2022-08-26T19:45:03.607Z,19.90
2022-08-26T19:47:33.838Z,19.90
2022-08-26T19:50:04.032Z,19.90
2022-08-26T19:52:34.359Z,19.90
2022-08-26T19:55:06.899Z,19.90
2022-08-26T19:57:41.352Z,19.90
2022-08-26T20:00:14.803Z,19.90
2022-08-26T20:02:46.505Z,20.00
2022-08-26T20:05:20.105Z,20.00
2022-08-26T20:07:50.919Z,19.90
2022-08-26T20:10:25.564Z,19.90
2022-08-26T20:12:58.641Z,19.90
2022-08-26T20:15:29.194Z,19.90
2022-08-26T20:17:59.719Z,19.90
2022-08-26T20:20:42.381Z,19.90
2022-08-26T20:23:12.987Z,20.00
2022-08-26T20:25:43.876Z,20.00
2022-08-26T20:28:16.808Z,20.00
2022-08-26T20:30:47.244Z,19.90
2022-08-26T20:33:17.575Z,19.90
2022-08-26T20:35:47.883Z,19.90
2022-08-26T20:38:21.454Z,19.90
2022-08-26T20:40:52.178Z,19.90
2022-08-26T20:43:29.595Z,19.90
2022-08-26T20:46:00.054Z,19.90
2022-08-26T20:48:30.683Z,19.90
2022-08-26T20:51:02.613Z,19.90
2022-08-26T20:53:33.427Z,19.90
2022-08-26T20:56:05.107Z,19.90
2022-08-26T20:58:38.587Z,19.90
2022-08-26T21:01:09.829Z,19.90
2022-08-26T21:03:41.080Z,19.80
2022-08-26T21:06:11.538Z,19.90
2022-08-26T21:08:43.278Z,19.90
2022-08-26T21:11:14.942Z,19.90
2022-08-26T21:14:04.381Z,19.80
2022-08-26T21:16:39.241Z,19.80
2022-08-26T21:19:14.002Z,19.90
2022-08-26T21:21:44.903Z,19.80
2022-08-26T21:24:15.785Z,19.80
2022-08-26T21:26:46.644Z,19.90
2022-08-26T21:29:22.132Z,19.90
2022-08-26T21:31:52.680Z,19.80
2022-08-26T21:34:23.883Z,19.80
2022-08-26T21:36:54.362Z,19.80
2022-08-26T21:39:24.776Z,19.80
2022-08-26T21:41:55.115Z,19.80
2022-08-26T21:44:28.316Z,19.80
2022-08-26T21:46:58.651Z,19.80
2022-08-26T21:49:28.842Z,19.70
2022-08-26T21:51:59.279Z,19.70
2022-08-26T21:54:29.480Z,19.70
2022-08-26T21:57:00.243Z,19.70
2022-08-26T21:59:33.369Z,19.80
2022-08-26T22:02:05.766Z,19.80
2022-08-26T22:04:36.303Z,19.70
2022-08-26T22:07:06.771Z,19.70
2022-08-26T22:09:40.336Z,19.70
2022-08-26T22:12:18.246Z,19.70
2022-08-26T22:14:51.161Z,19.70
2022-08-26T22:17:22.647Z,19.70
2022-08-26T22:19:53.340Z,19.70
2022-08-26T22:22:23.667Z,19.60
2022-08-26T22:24:54.034Z,19.60
2022-08-26T22:27:24.323Z,19.60
2022-08-26T22:29:57.375Z,19.60
2022-08-26T22:32:27.671Z,19.50
2022-08-26T22:34:57.966Z,19.60
2022-08-26T22:37:28.452Z,19.60
2022-08-26T22:39:58.751Z,19.50
2022-08-26T22:42:29.301Z,19.50
2022-08-26T22:45:02.278Z,19.50
2022-08-26T22:47:32.750Z,19.50
2022-08-26T22:50:06.633Z,19.50
2022-08-26T22:52:37.204Z,19.50
2022-08-26T22:55:09.175Z,19.50
2022-08-26T22:57:39.745Z,19.50
2022-08-26T23:00:15.248Z,19.50
2022-08-26T23:02:45.860Z,19.50
2022-08-26T23:05:16.440Z,19.50
2022-08-26T23:07:46.755Z,19.50
2022-08-26T23:10:17.112Z,19.40
2022-08-26T23:12:47.439Z,19.40
2022-08-26T23:15:20.265Z,19.40
2022-08-26T23:17:58.645Z,19.40
2022-08-26T23:20:30.736Z,19.40
2022-08-26T23:23:01.566Z,19.40
2022-08-26T23:25:32.593Z,19.30
2022-08-26T23:28:04.209Z,19.30
2022-08-26T23:30:37.378Z,19.40
2022-08-26T23:33:08.500Z,19.40
2022-08-26T23:35:36.215Z,19.40
2022-08-26T23:38:09.969Z,19.40
2022-08-26T23:40:44.160Z,19.40
2022-08-26T23:43:16.536Z,19.30
2022-08-26T23:45:49.588Z,19.30
2022-08-26T23:48:19.836Z,19.40
2022-08-26T23:51:04.912Z,19.40
2022-08-26T23:53:35.176Z,19.40
2022-08-26T23:56:06.040Z,19.40
2022-08-26T23:58:36.284Z,19.30
